createdAt,value
2023-07-21T00:00:16.410Z,3.45
2023-07-21T00:02:44.348Z,2.63
2023-07-21T00:05:12.203Z,3.53
2023-07-21T00:07:41.775Z,3.37
2023-07-21T00:10:11.069Z,4.37
2023-07-21T00:12:41.450Z,3.87
2023-07-21T00:15:11.798Z,4.63
2023-07-21T00:17:39.739Z,3.43
2023-07-21T00:20:13.615Z,3.37
2023-07-21T00:22:42.999Z,4.97
2023-07-21T00:25:13.098Z,3.53
2023-07-21T00:27:41.303Z,3.40
2023-07-21T00:30:09.939Z,2.13
2023-07-21T00:32:38.272Z,3.13
2023-07-21T00:35:08.054Z,2.00
2023-07-21T00:37:35.839Z,2.40
2023-07-21T00:40:06.253Z,6.43
2023-07-21T00:42:34.055Z,2.63
2023-07-21T00:45:01.886Z,3.43
2023-07-21T00:47:30.771Z,3.27
2023-07-21T00:49:58.923Z,3.90
2023-07-21T00:52:27.514Z,3.87
2023-07-21T00:54:56.247Z,2.57
2023-07-21T00:57:26.506Z,3.47
2023-07-21T00:59:54.269Z,3.00
2023-07-21T01:02:22.307Z,2.80
2023-07-21T01:04:50.244Z,3.83
2023-07-21T01:07:19.723Z,2.83
2023-07-21T01:09:47.676Z,3.47
2023-07-21T01:12:16.126Z,3.60
2023-07-21T01:14:47.054Z,4.27
2023-07-21T01:17:16.057Z,5.00
2023-07-21T01:19:49.765Z,3.17
2023-07-21T01:22:23.887Z,3.10
2023-07-21T01:25:08.670Z,4.67
2023-07-21T01:27:40.963Z,4.13
2023-07-21T01:30:12.781Z,4.40
2023-07-21T01:32:42.458Z,4.30
2023-07-21T01:35:14.185Z,2.77
2023-07-21T01:37:45.168Z,2.50
2023-07-21T01:40:16.913Z,3.80
2023-07-21T01:42:48.876Z,3.40
2023-07-21T01:45:16.892Z,3.70
2023-07-21T01:47:47.064Z,4.07
2023-07-21T01:50:18.065Z,3.30
2023-07-21T01:52:47.240Z,4.20
2023-07-21T01:55:21.311Z,2.87
2023-07-21T01:57:52.807Z,2.53
2023-07-21T02:00:23.963Z,3.57
2023-07-21T02:02:53.360Z,2.80
2023-07-21T02:05:22.640Z,4.10
2023-07-21T02:07:51.735Z,5.10
2023-07-21T02:10:21.094Z,2.90
2023-07-21T02:12:48.897Z,3.53
2023-07-21T02:15:16.785Z,2.53
2023-07-21T02:17:45.088Z,3.47
2023-07-21T02:20:15.333Z,3.37
2023-07-21T02:22:44.542Z,5.20
2023-07-21T02:25:14.095Z,3.73
2023-07-21T02:27:43.370Z,4.53
2023-07-21T02:30:12.030Z,4.47
2023-07-21T02:32:39.976Z,3.93
2023-07-21T02:35:09.417Z,3.63
2023-07-21T02:37:37.643Z,4.07
2023-07-21T02:40:07.461Z,3.53
2023-07-21T02:42:36.795Z,6.27
2023-07-21T02:45:07.142Z,4.57
2023-07-21T02:47:34.986Z,6.10
2023-07-21T02:50:02.951Z,2.83
2023-07-21T02:52:30.710Z,5.00
2023-07-21T02:54:58.476Z,6.73
2023-07-21T02:57:27.077Z,3.27
2023-07-21T02:59:55.221Z,4.37
2023-07-21T03:02:24.769Z,3.07
2023-07-21T03:04:52.675Z,6.37
2023-07-21T03:07:20.448Z,3.40
2023-07-21T03:09:48.320Z,6.43
2023-07-21T03:12:16.091Z,3.33
2023-07-21T03:14:43.891Z,4.00
2023-07-21T03:17:14.192Z,4.07
2023-07-21T03:19:43.271Z,4.10
2023-07-21T03:22:11.174Z,3.73
2023-07-21T03:24:40.809Z,4.37
2023-07-21T03:27:08.748Z,5.07
2023-07-21T03:29:36.499Z,3.30
2023-07-21T03:32:04.565Z,4.50
2023-07-21T03:34:32.366Z,5.27
2023-07-21T03:37:05.892Z,4.73
2023-07-21T03:39:33.685Z,4.23
2023-07-21T03:42:01.503Z,4.17
2023-07-21T03:44:29.293Z,4.40
2023-07-21T03:46:57.058Z,4.47
2023-07-21T03:49:24.850Z,6.47
2023-07-21T03:51:52.635Z,3.10
2023-07-21T03:54:21.735Z,5.63
2023-07-21T03:56:49.497Z,5.03
2023-07-21T03:59:17.380Z,6.47
2023-07-21T04:01:45.176Z,2.93
2023-07-21T04:04:13.047Z,7.27
2023-07-21T04:06:40.908Z,4.00
2023-07-21T04:09:11.428Z,3.90
2023-07-21T04:11:40.513Z,6.77
2023-07-21T04:14:08.275Z,3.63
2023-07-21T04:16:36.094Z,3.60
2023-07-21T04:19:04.774Z,4.70
2023-07-21T04:21:32.523Z,4.27
2023-07-21T04:24:00.398Z,2.80
2023-07-21T04:26:28.245Z,5.83
2023-07-21T04:28:57.338Z,3.90
2023-07-21T04:31:29.846Z,3.43
2023-07-21T04:33:57.740Z,2.43
2023-07-21T04:36:25.916Z,3.47
2023-07-21T04:38:53.926Z,2.30
2023-07-21T04:41:22.263Z,2.87
2023-07-21T04:43:50.046Z,2.30
2023-07-21T04:46:19.913Z,2.40
2023-07-21T04:48:47.746Z,3.53
2023-07-21T04:51:16.144Z,3.20
2023-07-21T04:53:44.135Z,4.63
2023-07-21T04:56:14.525Z,2.60
2023-07-21T04:58:42.788Z,2.25
2023-07-21T05:01:10.830Z,3.63
2023-07-21T05:03:40.321Z,4.67
2023-07-21T05:06:10.677Z,5.03
2023-07-21T05:08:38.499Z,2.43
2023-07-21T05:11:06.248Z,3.08
2023-07-21T05:13:33.988Z,5.40
2023-07-21T05:16:02.034Z,2.67
2023-07-21T05:18:29.809Z,10.43
2023-07-21T05:20:58.875Z,3.13
2023-07-21T05:23:26.630Z,3.13
2023-07-21T05:26:01.820Z,2.17
2023-07-21T05:28:29.802Z,3.15
2023-07-21T05:30:58.151Z,7.30
2023-07-21T05:33:26.090Z,2.40
2023-07-21T05:35:53.830Z,3.10
2023-07-21T05:38:22.934Z,2.33
2023-07-21T05:40:58.762Z,3.17
2023-07-21T05:43:26.902Z,2.97
2023-07-21T05:45:54.871Z,3.33
2023-07-21T05:48:22.800Z,3.22
2023-07-21T05:50:50.612Z,2.50
2023-07-21T05:53:18.655Z,2.90
2023-07-21T05:55:48.981Z,4.20
2023-07-21T05:58:16.729Z,3.47
2023-07-21T06:00:44.498Z,3.20
2023-07-21T06:03:12.492Z,2.58
2023-07-21T06:05:40.606Z,3.58
2023-07-21T06:08:08.830Z,7.70
2023-07-21T06:10:36.665Z,5.15
2023-07-21T06:13:07.227Z,3.42
2023-07-21T06:15:35.415Z,2.45
2023-07-21T06:18:04.556Z,4.68
2023-07-21T06:20:32.608Z,8.18
2023-07-21T06:23:02.061Z,6.57
2023-07-21T06:25:29.919Z,5.95
2023-07-21T06:27:58.516Z,3.72
2023-07-21T06:30:27.841Z,7.32
2023-07-21T06:32:55.720Z,22.42
2023-07-21T06:35:23.563Z,13.65
2023-07-21T06:37:51.322Z,10.73
2023-07-21T06:40:20.990Z,7.32
2023-07-21T06:42:48.923Z,17.25
2023-07-21T06:45:16.683Z,9.48
2023-07-21T06:47:45.781Z,8.80
2023-07-21T06:50:13.528Z,11.13
2023-07-21T06:52:41.550Z,11.90
2023-07-21T06:55:10.255Z,10.10
2023-07-21T06:57:38.096Z,9.98
2023-07-21T07:00:09.369Z,10.15
2023-07-21T07:02:37.193Z,7.55
2023-07-21T07:05:06.906Z,10.13
2023-07-21T07:07:34.698Z,9.10
2023-07-21T07:10:02.710Z,11.75
2023-07-21T07:12:31.033Z,10.35
2023-07-21T07:14:59.541Z,6.97
2023-07-21T07:17:27.396Z,7.30
2023-07-21T07:19:55.186Z,5.45
2023-07-21T07:22:24.296Z,7.10
2023-07-21T07:24:52.120Z,8.65
2023-07-21T07:27:19.916Z,7.82
2023-07-21T07:29:48.173Z,6.05
2023-07-21T07:32:16.294Z,6.38
2023-07-21T07:34:44.072Z,8.48
2023-07-21T07:37:11.850Z,4.22
2023-07-21T07:39:40.910Z,8.15
2023-07-21T07:42:08.851Z,6.13
2023-07-21T07:44:36.682Z,6.05
2023-07-21T07:47:04.929Z,5.00
2023-07-21T07:49:32.732Z,5.07
2023-07-21T07:52:00.498Z,9.60
2023-07-21T07:54:28.249Z,7.47
2023-07-21T07:56:57.504Z,5.45
2023-07-21T07:59:25.336Z,4.55
2023-07-21T08:01:53.168Z,6.88
2023-07-21T08:04:21.184Z,3.40
2023-07-21T08:06:49.014Z,3.47
2023-07-21T08:09:16.789Z,4.18
2023-07-21T08:11:44.540Z,3.20
2023-07-21T08:14:13.606Z,4.22
2023-07-21T08:16:41.528Z,2.22
2023-07-21T08:19:09.398Z,1.63
2023-07-21T08:21:37.276Z,3.10
2023-07-21T08:24:05.284Z,2.78
2023-07-21T08:26:33.080Z,1.88
2023-07-21T08:29:00.855Z,2.20
2023-07-21T08:31:30.184Z,1.95
2023-07-21T08:33:58.259Z,3.15
2023-07-21T08:36:34.030Z,2.05
2023-07-21T08:39:11.852Z,2.40
2023-07-21T08:41:47.629Z,2.08
2023-07-21T08:44:16.739Z,1.92
2023-07-21T08:46:45.847Z,1.27
2023-07-21T08:49:17.792Z,1.70
2023-07-21T08:51:45.599Z,1.70
2023-07-21T08:54:13.768Z,2.03
2023-07-21T08:56:41.554Z,2.53
2023-07-21T08:59:09.346Z,3.47
2023-07-21T09:01:37.152Z,1.70
2023-07-21T09:04:18.880Z,2.45
2023-07-21T09:06:51.069Z,1.85
2023-07-21T09:09:19.753Z,2.42
2023-07-21T09:11:48.506Z,2.10
2023-07-21T09:14:17.388Z,2.38
2023-07-21T09:16:45.726Z,2.40
2023-07-21T09:19:14.983Z,2.95
2023-07-21T09:21:42.785Z,2.53
2023-07-21T09:24:10.972Z,2.85
2023-07-21T09:26:38.782Z,3.28
2023-07-21T09:29:18.410Z,2.25
2023-07-21T09:31:48.497Z,1.83
2023-07-21T09:34:17.776Z,2.70
2023-07-21T09:36:47.012Z,2.08
2023-07-21T09:39:17.021Z,6.07
2023-07-21T09:41:47.155Z,2.22
2023-07-21T09:44:15.539Z,1.98
2023-07-21T09:46:44.054Z,3.65
2023-07-21T09:49:11.890Z,1.90
2023-07-21T09:51:44.490Z,4.10
2023-07-21T09:54:19.301Z,3.33
2023-07-21T09:56:48.651Z,2.10
2023-07-21T09:59:19.108Z,2.47
2023-07-21T10:01:49.389Z,2.80
2023-07-21T10:04:18.704Z,3.95
2023-07-21T10:06:48.093Z,2.15
2023-07-21T10:09:16.200Z,3.10
2023-07-21T10:11:44.874Z,4.13
2023-07-21T10:14:32.017Z,2.92
2023-07-21T10:16:59.790Z,2.63
2023-07-21T10:19:30.087Z,2.28
2023-07-21T10:21:59.234Z,2.17
2023-07-21T10:24:28.952Z,2.22
2023-07-21T10:26:57.755Z,1.95
2023-07-21T10:29:25.661Z,2.85
2023-07-21T10:31:54.844Z,2.10
2023-07-21T10:34:26.124Z,1.75
2023-07-21T10:37:04.038Z,1.95
2023-07-21T10:39:33.692Z,4.10
2023-07-21T10:42:04.981Z,5.93
2023-07-21T10:44:37.328Z,3.88
2023-07-21T10:47:06.508Z,4.28
2023-07-21T10:49:36.095Z,4.38
2023-07-21T10:52:06.089Z,2.13
2023-07-21T10:54:34.098Z,3.58
2023-07-21T10:57:02.276Z,7.30
2023-07-21T10:59:34.374Z,2.60
2023-07-21T11:02:04.593Z,1.83
2023-07-21T11:04:33.083Z,3.47
2023-07-21T11:07:01.947Z,2.83
2023-07-21T11:09:35.845Z,4.15
2023-07-21T11:12:05.751Z,3.03
2023-07-21T11:14:33.876Z,3.65
2023-07-21T11:17:03.758Z,3.08
2023-07-21T11:19:33.349Z,5.60
2023-07-21T11:22:01.613Z,3.47
2023-07-21T11:24:32.862Z,6.28
2023-07-21T11:27:06.661Z,5.05
2023-07-21T11:29:38.771Z,3.35
2023-07-21T11:32:18.248Z,2.72
2023-07-21T11:34:46.240Z,2.97
2023-07-21T11:37:15.989Z,2.20
2023-07-21T11:39:56.306Z,2.53
2023-07-21T11:42:24.617Z,3.35
2023-07-21T11:44:53.517Z,3.35
2023-07-21T11:47:21.867Z,3.08
2023-07-21T11:49:54.215Z,3.78
2023-07-21T11:52:25.452Z,4.13
2023-07-21T11:54:57.345Z,2.15
2023-07-21T11:57:25.170Z,5.30
2023-07-21T11:59:52.896Z,2.10
2023-07-21T12:02:24.290Z,3.85
2023-07-21T12:04:53.126Z,2.58
2023-07-21T12:07:20.962Z,3.88
2023-07-21T12:09:50.109Z,2.20
2023-07-21T12:12:19.240Z,2.90
2023-07-21T12:14:47.068Z,2.88
2023-07-21T12:17:17.778Z,3.42
2023-07-21T12:19:48.243Z,2.33
2023-07-21T12:22:16.226Z,2.47
2023-07-21T12:24:44.081Z,3.60
2023-07-21T12:27:13.386Z,2.20
2023-07-21T12:29:46.239Z,3.40
2023-07-21T12:32:14.775Z,3.28
2023-07-21T12:34:43.024Z,3.03
2023-07-21T12:37:11.031Z,2.97
2023-07-21T12:39:38.878Z,2.45
2023-07-21T12:42:08.578Z,3.88
2023-07-21T12:44:36.490Z,2.20
2023-07-21T12:47:06.231Z,3.83
2023-07-21T12:49:34.217Z,2.67
2023-07-21T12:52:02.006Z,2.13
2023-07-21T12:54:29.765Z,4.15
2023-07-21T12:56:58.434Z,3.65
2023-07-21T12:59:26.306Z,2.28
2023-07-21T13:01:54.181Z,2.42
2023-07-21T13:04:23.541Z,2.53
2023-07-21T13:06:51.462Z,1.77
2023-07-21T13:09:19.258Z,1.92
2023-07-21T13:11:47.041Z,2.03
2023-07-21T13:14:14.842Z,2.67
2023-07-21T13:16:43.108Z,3.35
2023-07-21T13:19:11.289Z,2.00
2023-07-21T13:21:40.516Z,2.80
2023-07-21T13:24:08.407Z,2.53
2023-07-21T13:26:36.374Z,2.40
2023-07-21T13:29:04.241Z,2.33
2023-07-21T13:31:32.475Z,3.95
2023-07-21T13:34:00.447Z,2.67
2023-07-21T13:36:28.512Z,2.40
2023-07-21T13:38:57.967Z,2.38
2023-07-21T13:41:25.793Z,2.60
2023-07-21T13:43:54.853Z,1.98
2023-07-21T13:46:25.021Z,2.22
2023-07-21T13:48:53.363Z,2.95
2023-07-21T13:51:21.398Z,4.03
2023-07-21T13:53:49.388Z,2.92
2023-07-21T13:56:20.029Z,2.65
2023-07-21T13:58:47.906Z,3.28
2023-07-21T14:01:16.302Z,3.60
2023-07-21T14:03:48.109Z,3.22
2023-07-21T14:06:17.933Z,3.63
2023-07-21T14:08:46.232Z,2.58
2023-07-21T14:11:14.333Z,3.58
2023-07-21T14:13:43.587Z,2.75
2023-07-21T14:16:11.441Z,2.70
2023-07-21T14:18:39.523Z,2.65
2023-07-21T14:21:07.370Z,3.85
2023-07-21T14:23:35.117Z,2.83
2023-07-21T14:26:02.996Z,2.55
2023-07-21T14:28:30.786Z,3.47
2023-07-21T14:31:00.053Z,3.58
2023-07-21T14:33:27.840Z,3.75
2023-07-21T14:35:55.571Z,2.53
2023-07-21T14:38:23.817Z,2.17
2023-07-21T14:40:51.669Z,4.50
2023-07-21T14:43:20.362Z,3.65
2023-07-21T14:45:51.010Z,2.80
2023-07-21T14:48:21.665Z,3.70
2023-07-21T14:50:50.223Z,2.22
2023-07-21T14:53:18.687Z,2.50
2023-07-21T14:55:46.615Z,3.55
2023-07-21T14:58:14.402Z,2.75
2023-07-21T15:00:49.287Z,2.40
2023-07-21T15:03:17.217Z,2.75
2023-07-21T15:05:46.518Z,2.72
2023-07-21T15:08:14.322Z,2.40
2023-07-21T15:10:42.178Z,3.67
2023-07-21T15:13:09.933Z,2.60
2023-07-21T15:15:39.915Z,2.30
2023-07-21T15:18:10.589Z,2.30
2023-07-21T15:20:38.521Z,3.25
2023-07-21T15:23:07.678Z,2.90
2023-07-21T15:25:35.482Z,3.67
2023-07-21T15:28:03.285Z,2.90
2023-07-21T15:30:31.101Z,2.60
2023-07-21T15:32:58.933Z,3.17
2023-07-21T15:35:26.796Z,2.83
2023-07-21T15:37:54.660Z,2.97
2023-07-21T15:40:24.179Z,2.70
2023-07-21T15:42:52.106Z,4.07
2023-07-21T15:45:19.986Z,2.72
2023-07-21T15:47:47.812Z,2.50
2023-07-21T15:50:16.206Z,2.33
2023-07-21T15:52:44.585Z,2.40
2023-07-21T15:55:13.956Z,2.33
2023-07-21T15:57:43.551Z,2.22
2023-07-21T16:00:16.538Z,4.65
2023-07-21T16:02:45.423Z,1.90
2023-07-21T16:05:13.525Z,3.03
2023-07-21T16:07:42.058Z,2.33
2023-07-21T16:10:11.290Z,2.25
2023-07-21T16:12:39.802Z,2.30
2023-07-21T16:15:10.614Z,2.00
2023-07-21T16:17:38.583Z,2.65
2023-07-21T16:20:12.508Z,2.50
2023-07-21T16:22:41.050Z,2.33
2023-07-21T16:25:09.746Z,3.63
2023-07-21T16:27:38.112Z,2.50
2023-07-21T16:30:07.105Z,2.53
2023-07-21T16:32:36.304Z,2.20
2023-07-21T16:35:04.454Z,2.38
2023-07-21T16:37:32.322Z,2.22
2023-07-21T16:40:01.454Z,2.75
2023-07-21T16:42:32.089Z,1.95
2023-07-21T16:45:02.275Z,2.40
2023-07-21T16:47:30.261Z,4.50
2023-07-21T16:49:59.604Z,1.80
2023-07-21T16:52:27.610Z,3.97
2023-07-21T16:54:56.954Z,2.08
2023-07-21T16:57:24.776Z,1.60
2023-07-21T16:59:56.596Z,1.80
2023-07-21T17:02:25.388Z,2.15
2023-07-21T17:04:55.130Z,2.38
2023-07-21T17:07:24.888Z,2.05
2023-07-21T17:09:52.743Z,1.77
2023-07-21T17:12:21.148Z,2.25
2023-07-21T17:14:49.580Z,1.80
2023-07-21T17:17:19.422Z,2.05
2023-07-21T17:19:47.434Z,2.42
2023-07-21T17:22:15.424Z,1.60
2023-07-21T17:24:47.421Z,1.88
2023-07-21T17:27:15.689Z,1.90
2023-07-21T17:29:43.625Z,1.50
2023-07-21T17:32:12.008Z,1.70
2023-07-21T17:34:40.038Z,2.20
2023-07-21T17:37:08.532Z,1.92
2023-07-21T17:39:40.264Z,2.28
2023-07-21T17:42:10.215Z,1.77
2023-07-21T17:44:38.301Z,2.28
2023-07-21T17:47:06.771Z,4.07
2023-07-21T17:49:34.606Z,4.10
2023-07-21T17:52:06.061Z,3.35
2023-07-21T17:54:33.919Z,2.60
2023-07-21T17:57:02.248Z,2.75
2023-07-21T17:59:31.459Z,2.10
2023-07-21T18:01:59.280Z,2.20
2023-07-21T18:04:27.252Z,2.03
2023-07-21T18:06:55.045Z,5.80
2023-07-21T18:09:24.560Z,2.40
2023-07-21T18:11:53.783Z,2.45
2023-07-21T18:14:21.574Z,1.77
2023-07-21T18:16:50.800Z,2.25
2023-07-21T18:19:18.902Z,2.78
2023-07-21T18:21:46.749Z,2.20
2023-07-21T18:24:14.768Z,3.28
2023-07-21T18:26:42.957Z,2.42
2023-07-21T18:29:10.847Z,2.25
2023-07-21T18:31:39.157Z,3.90
2023-07-21T18:34:08.603Z,3.45
2023-07-21T18:36:36.394Z,2.53
2023-07-21T18:39:06.171Z,2.20
2023-07-21T18:41:34.158Z,3.55
2023-07-21T18:44:02.021Z,3.63
2023-07-21T18:46:29.973Z,3.63
2023-07-21T18:48:58.031Z,3.08
2023-07-21T18:51:27.472Z,2.58
2023-07-21T18:53:55.730Z,2.08
2023-07-21T18:56:23.547Z,3.10
2023-07-21T18:58:52.475Z,3.15
2023-07-21T19:01:22.328Z,2.95
2023-07-21T19:03:50.358Z,2.50
2023-07-21T19:06:18.685Z,2.30
2023-07-21T19:08:47.822Z,2.63
2023-07-21T19:11:18.821Z,2.45
2023-07-21T19:13:46.606Z,2.47
2023-07-21T19:16:14.453Z,5.85
2023-07-21T19:18:42.599Z,2.28
2023-07-21T19:21:10.400Z,4.97
2023-07-21T19:23:39.128Z,2.60
2023-07-21T19:26:08.863Z,4.10
2023-07-21T19:28:37.017Z,2.95
2023-07-21T19:31:04.776Z,2.80
2023-07-21T19:33:32.693Z,3.13
2023-07-21T19:36:00.491Z,3.38
2023-07-21T19:38:28.390Z,2.72
2023-07-21T19:40:57.750Z,2.83
2023-07-21T19:43:27.552Z,5.05
2023-07-21T19:45:55.353Z,2.88
2023-07-21T19:48:23.189Z,3.70
2023-07-21T19:50:51.830Z,3.00
2023-07-21T19:53:19.657Z,6.28
2023-07-21T19:55:47.493Z,3.72
2023-07-21T19:58:15.398Z,4.07
2023-07-21T20:00:46.069Z,6.07
2023-07-21T20:03:14.235Z,6.50
2023-07-21T20:05:42.433Z,4.78
2023-07-21T20:08:10.405Z,6.40
2023-07-21T20:10:38.384Z,12.02
2023-07-21T20:13:06.340Z,13.05
2023-07-21T20:15:34.201Z,9.90
2023-07-21T20:18:03.323Z,11.32
2023-07-21T20:20:33.032Z,13.55
2023-07-21T20:23:00.967Z,10.07
2023-07-21T20:25:28.824Z,10.05
2023-07-21T20:27:56.602Z,8.55
2023-07-21T20:30:24.594Z,12.93
2023-07-21T20:32:52.409Z,10.13
2023-07-21T20:35:21.582Z,7.82
2023-07-21T20:37:49.698Z,5.18
2023-07-21T20:40:17.605Z,4.75
2023-07-21T20:42:45.465Z,4.95
2023-07-21T20:45:13.391Z,5.65
2023-07-21T20:47:41.550Z,5.38
2023-07-21T20:50:10.281Z,5.43
2023-07-21T20:52:39.410Z,5.72
2023-07-21T20:55:09.840Z,4.88
2023-07-21T20:57:38.931Z,5.95
2023-07-21T21:00:12.644Z,4.15
2023-07-21T21:02:40.538Z,4.45
2023-07-21T21:05:08.723Z,4.25
2023-07-21T21:07:36.496Z,3.90
2023-07-21T21:10:06.920Z,4.20
2023-07-21T21:12:34.831Z,5.82
2023-07-21T21:15:03.744Z,5.25
2023-07-21T21:17:32.347Z,4.63
2023-07-21T21:20:00.265Z,5.32
2023-07-21T21:22:28.598Z,7.53
2023-07-21T21:24:56.436Z,6.32
2023-07-21T21:27:25.610Z,5.13
2023-07-21T21:29:53.405Z,4.53
2023-07-21T21:32:21.167Z,4.00
2023-07-21T21:34:48.936Z,3.78
2023-07-21T21:37:16.687Z,5.05
2023-07-21T21:39:44.481Z,3.22
2023-07-21T21:42:13.305Z,4.55
2023-07-21T21:44:42.884Z,4.07
2023-07-21T21:47:10.675Z,3.58
2023-07-21T21:49:38.427Z,3.85
2023-07-21T21:52:06.562Z,5.40
2023-07-21T21:54:34.333Z,3.78
2023-07-21T21:57:02.089Z,4.07
2023-07-21T21:59:30.504Z,3.08
2023-07-21T22:02:00.818Z,3.60
2023-07-21T22:04:28.582Z,4.20
2023-07-21T22:06:56.360Z,6.15
2023-07-21T22:09:24.248Z,3.97
2023-07-21T22:11:52.050Z,5.05
2023-07-21T22:14:19.843Z,3.80
2023-07-21T22:16:47.653Z,3.75
2023-07-21T22:19:16.762Z,5.38
2023-07-21T22:21:44.562Z,4.60
2023-07-21T22:24:12.343Z,4.55
2023-07-21T22:26:40.123Z,4.40
2023-07-21T22:29:07.877Z,4.07
2023-07-21T22:31:35.726Z,3.40
2023-07-21T22:34:05.004Z,5.47
2023-07-21T22:36:34.102Z,3.53
2023-07-21T22:39:02.070Z,4.07
2023-07-21T22:41:29.876Z,4.13
2023-07-21T22:43:57.932Z,4.22
2023-07-21T22:46:25.977Z,4.40
2023-07-21T22:48:53.968Z,5.25
2023-07-21T22:51:22.051Z,4.32
2023-07-21T22:53:51.135Z,4.57
2023-07-21T22:56:18.895Z,4.22
2023-07-21T22:58:46.655Z,4.65
2023-07-21T23:01:14.424Z,4.30
2023-07-21T23:03:42.354Z,4.55
2023-07-21T23:06:10.093Z,4.63
2023-07-21T23:08:37.864Z,3.67
2023-07-21T23:11:06.978Z,3.70
2023-07-21T23:13:34.748Z,4.03
2023-07-21T23:16:02.538Z,4.00
2023-07-21T23:18:30.325Z,4.10
2023-07-21T23:20:58.089Z,5.40
2023-07-21T23:23:25.925Z,3.78
2023-07-21T23:25:57.863Z,4.30
2023-07-21T23:28:27.034Z,4.47
2023-07-21T23:30:59.800Z,4.40
2023-07-21T23:33:28.280Z,4.80
2023-07-21T23:35:56.106Z,4.35
2023-07-21T23:38:23.863Z,5.43
2023-07-21T23:40:52.782Z,5.57
2023-07-21T23:43:20.565Z,8.77
2023-07-21T23:45:54.975Z,6.32
2023-07-21T23:48:26.952Z,7.40
2023-07-21T23:50:54.793Z,7.32
2023-07-21T23:53:22.640Z,6.55
2023-07-21T23:55:50.557Z,6.28
2023-07-21T23:58:18.384Z,6.10
